Time,TemperatureF,DewpointF,PressureIn,WindDirection,WindDirectionDegrees,WindSpeedMPH,WindSpeedGustMPH,Humidity,HourlyPrecipIn,Conditions,Clouds,dailyrainin,SoftwareType,DateUTC
2013-10-30 00:00:00,55.9,51.2,30.27,East,85,0.0,0.0,84,0.00,CLR,,0.00,WeatherDisplay:10.37,2013-10-30 04:00:00,
2013-10-30 00:05:00,55.9,51.2,30.27,East,85,0.0,0.0,84,0.00,CLR,,0.00,WeatherDisplay:10.37,2013-10-30 04:05:00,
2013-10-30 00:10:00,55.8,51.0,30.27,East,85,0.0,0.0,84,0.00,CLR,,0.00,WeatherDisplay:10.37,2013-10-30 04:10:00,
2013-10-30 00:15:00,55.6,51.1,30.27,East,85,0.0,0.0,85,0.00,CLR,,0.00,WeatherDisplay:10.37,2013-10-30 04:15:00,
2013-10-30 00:20:00,55.4,51.0,30.27,East,85,0.0,0.0,85,0.00,CLR,,0.00,WeatherDisplay:10.37,2013-10-30 04:20:00,
2013-10-30 00:25:00,55.4,51.0,30.27,East,85,0.0,0.0,85,0.00,CLR,,0.00,WeatherDisplay:10.37,2013-10-30 04:25:00,
2013-10-30 00:30:00,55.2,50.8,30.24,East,85,0.0,0.0,85,0.00,CLR,,0.00,WeatherDisplay:10.37,2013-10-30 04:30:00,
2013-10-30 00:35:00,55.0,50.6,30.24,East,85,0.0,0.0,85,0.00,CLR,,0.00,WeatherDisplay:10.37,2013-10-30 04:35:00,
2013-10-30 00:40:00,55.0,50.6,30.24,East,85,0.0,0.0,85,0.00,CLR,,0.00,WeatherDisplay:10.37,2013-10-30 04:40:00,
2013-10-30 00:45:00,54.9,50.4,30.24,East,85,0.0,0.0,85,0.00,CLR,,0.00,WeatherDisplay:10.37,2013-10-30 04:45:00,
2013-10-30 00:50:00,54.8,50.4,30.24,East,85,0.0,0.0,85,0.00,CLR,,0.00,WeatherDisplay:10.37,2013-10-30 04:50:00,
2013-10-30 00:55:00,54.7,50.3,30.24,East,85,0.0,0.0,85,0.00,CLR,,0.00,WeatherDisplay:10.37,2013-10-30 04:55:00,
2013-10-30 01:00:00,54.5,50.1,30.24,East,85,0.0,0.0,85,0.00,CLR,,0.00,WeatherDisplay:10.37,2013-10-30 05:00:00,
2013-10-30 01:05:00,54.5,50.1,30.24,East,85,0.0,0.0,85,0.00,CLR,,0.00,WeatherDisplay:10.37,2013-10-30 05:05:00,
2013-10-30 01:10:00,54.3,50.2,30.24,East,85,0.0,0.0,86,0.00,CLR,,0.00,WeatherDisplay:10.37,2013-10-30 05:10:00,
2013-10-30 01:15:00,54.1,50.0,30.24,East,85,0.0,0.0,86,0.00,CLR,,0.00,WeatherDisplay:10.37,2013-10-30 05:15:00,
2013-10-30 01:20:00,54.1,50.0,30.24,East,85,0.0,0.0,86,0.00,CLR,,0.00,WeatherDisplay:10.37,2013-10-30 05:20:00,
2013-10-30 01:25:00,54.0,49.9,30.24,East,85,0.0,0.0,86,0.00,CLR,,0.00,WeatherDisplay:10.37,2013-10-30 05:25:00,
2013-10-30 01:30:00,54.0,49.9,30.24,East,85,0.0,0.0,86,0.00,CLR,,0.00,WeatherDisplay:10.37,2013-10-30 05:30:00,
2013-10-30 01:35:00,53.8,49.7,30.24,East,85,0.0,0.0,86,0.00,CLR,,0.00,WeatherDisplay:10.37,2013-10-30 05:35:00,
2013-10-30 01:40:00,53.7,49.6,30.24,East,85,0.0,0.0,86,0.00,CLR,,0.00,WeatherDisplay:10.37,2013-10-30 05:40:00,
2013-10-30 01:45:00,53.6,49.5,30.24,East,85,0.0,0.0,86,0.00,CLR,,0.00,WeatherDisplay:10.37,2013-10-30 05:45:00,
2013-10-30 01:50:00,53.5,49.7,30.24,East,85,0.0,0.0,87,0.00,CLR,,0.00,WeatherDisplay:10.37,2013-10-30 05:50:00,
2013-10-30 01:55:00,53.4,49.6,30.24,East,85,0.0,0.0,87,0.00,CLR,,0.00,WeatherDisplay:10.37,2013-10-30 05:55:00,
2013-10-30 02:00:00,53.4,49.6,30.24,East,85,0.0,0.0,87,0.00,CLR,,0.00,WeatherDisplay:10.37,2013-10-30 06:00:00,
2013-10-30 02:05:00,53.2,49.5,30.24,East,85,0.0,0.0,87,0.00,CLR,,0.00,WeatherDisplay:10.37,2013-10-30 06:05:00,
2013-10-30 02:10:00,53.2,49.5,30.24,East,85,0.0,0.0,87,0.00,CLR,,0.00,WeatherDisplay:10.37,2013-10-30 06:10:00,
2013-10-30 02:15:00,53.2,49.5,30.24,East,85,0.0,0.0,87,0.00,CLR,,0.00,WeatherDisplay:10.37,2013-10-30 06:15:00,
2013-10-30 02:20:00,53.1,49.3,30.24,East,85,0.0,0.0,87,0.00,CLR,,0.00,WeatherDisplay:10.37,2013-10-30 06:20:00,
2013-10-30 02:25:00,53.1,49.3,30.24,East,85,0.0,0.0,87,0.00,CLR,,0.00,WeatherDisplay:10.37,2013-10-30 06:25:00,
2013-10-30 02:30:00,52.9,49.1,30.24,East,85,0.0,0.0,87,0.00,CLR,,0.00,WeatherDisplay:10.37,2013-10-30 06:30:00,
2013-10-30 02:35:00,52.9,49.4,30.24,East,85,0.0,0.0,88,0.00,CLR,,0.00,WeatherDisplay:10.37,2013-10-30 06:35:00,
2013-10-30 02:40:00,52.7,49.2,30.24,East,85,0.0,0.0,88,0.00,CLR,,0.00,WeatherDisplay:10.37,2013-10-30 06:40:00,
2013-10-30 02:45:00,52.7,49.2,30.24,East,85,0.0,0.0,88,0.00,CLR,,0.00,WeatherDisplay:10.37,2013-10-30 06:45:00,
2013-10-30 02:50:00,52.5,49.1,30.24,East,85,0.0,0.0,88,0.00,CLR,,0.00,WeatherDisplay:10.37,2013-10-30 06:50:00,
2013-10-30 02:55:00,52.5,49.1,30.24,East,85,0.0,0.0,88,0.00,CLR,,0.00,WeatherDisplay:10.37,2013-10-30 06:55:00,
2013-10-30 03:00:00,52.5,49.4,30.24,East,85,0.0,0.0,89,0.00,CLR,,0.00,WeatherDisplay:10.37,2013-10-30 07:00:00,
2013-10-30 03:05:00,52.3,49.2,30.24,East,85,0.0,0.0,89,0.00,CLR,,0.00,WeatherDisplay:10.37,2013-10-30 07:05:00,
2013-10-30 03:10:00,52.3,49.2,30.24,East,85,0.0,0.0,89,0.00,CLR,,0.00,WeatherDisplay:10.37,2013-10-30 07:10:00,
2013-10-30 03:15:00,52.3,49.1,30.24,East,85,0.0,0.0,89,0.00,CLR,,0.00,WeatherDisplay:10.37,2013-10-30 07:15:00,
2013-10-30 03:20:00,52.2,49.0,30.24,East,85,0.0,0.0,89,0.00,CLR,,0.00,WeatherDisplay:10.37,2013-10-30 07:20:00,
2013-10-30 03:25:00,52.2,49.0,30.24,East,85,0.0,0.0,89,0.00,CLR,,0.00,WeatherDisplay:10.37,2013-10-30 07:25:00,
2013-10-30 03:30:00,52.0,48.8,30.24,East,85,0.0,0.0,89,0.00,CLR,,0.00,WeatherDisplay:10.37,2013-10-30 07:30:00,
2013-10-30 03:35:00,52.0,48.8,30.24,East,85,0.0,0.0,89,0.00,CLR,,0.00,WeatherDisplay:10.37,2013-10-30 07:35:00,
2013-10-30 03:40:00,52.0,48.8,30.24,East,85,0.0,0.0,89,0.00,CLR,,0.00,WeatherDisplay:10.37,2013-10-30 07:40:00,
2013-10-30 03:45:00,51.8,48.7,30.24,East,85,0.0,0.0,89,0.00,CLR,,0.00,WeatherDisplay:10.37,2013-10-30 07:45:00,
2013-10-30 03:50:00,51.8,49.0,30.24,East,85,0.0,0.0,90,0.00,CLR,,0.00,WeatherDisplay:10.37,2013-10-30 07:50:00,
2013-10-30 03:55:00,51.6,48.8,30.24,East,85,0.0,0.0,90,0.00,CLR,,0.00,WeatherDisplay:10.37,2013-10-30 07:55:00,
2013-10-30 04:00:00,51.6,48.8,30.24,East,85,0.0,0.0,90,0.00,CLR,,0.00,WeatherDisplay:10.37,2013-10-30 08:00:00,
2013-10-30 04:05:00,51.6,48.8,30.24,East,85,0.0,0.0,90,0.00,CLR,,0.00,WeatherDisplay:10.37,2013-10-30 08:05:00,
2013-10-30 04:10:00,51.4,48.6,30.24,East,85,0.0,0.0,90,0.00,CLR,,0.00,WeatherDisplay:10.37,2013-10-30 08:10:00,
2013-10-30 04:15:00,51.4,48.6,30.24,East,85,0.0,0.0,90,0.00,CLR,,0.00,WeatherDisplay:10.37,2013-10-30 08:15:00,
2013-10-30 04:20:00,51.4,48.6,30.24,East,85,0.0,0.0,90,0.00,CLR,,0.00,WeatherDisplay:10.37,2013-10-30 08:20:00,
2013-10-30 04:25:00,51.4,48.6,30.24,East,85,0.0,0.0,90,0.00,CLR,,0.00,WeatherDisplay:10.37,2013-10-30 08:25:00,
2013-10-30 04:30:00,51.4,48.6,30.24,East,85,0.0,0.0,90,0.00,CLR,,0.00,WeatherDisplay:10.37,2013-10-30 08:30:00,
2013-10-30 04:35:00,51.4,48.9,30.24,East,85,0.0,0.0,91,0.00,CLR,,0.00,WeatherDisplay:10.37,2013-10-30 08:35:00,
2013-10-30 04:40:00,51.4,48.9,30.24,East,85,0.0,0.0,91,0.00,CLR,,0.00,WeatherDisplay:10.37,2013-10-30 08:40:00,
2013-10-30 04:45:00,51.4,48.9,30.24,East,85,0.0,0.0,91,0.00,CLR,,0.00,WeatherDisplay:10.37,2013-10-30 08:45:00,
2013-10-30 04:50:00,51.4,48.9,30.24,East,85,0.0,0.0,91,0.00,CLR,,0.00,WeatherDisplay:10.37,2013-10-30 08:50:00,
2013-10-30 04:55:00,51.6,49.1,30.24,East,85,0.0,0.0,91,0.00,CLR,,0.00,WeatherDisplay:10.37,2013-10-30 08:55:00,
2013-10-30 05:00:00,51.6,49.1,30.24,East,85,0.0,0.0,91,0.00,CLR,,0.00,WeatherDisplay:10.37,2013-10-30 09:00:00,
2013-10-30 05:05:00,51.6,49.1,30.24,East,85,0.0,0.0,91,0.00,CLR,,0.00,WeatherDisplay:10.37,2013-10-30 09:05:00,
2013-10-30 05:10:00,51.6,49.1,30.24,East,85,0.0,0.0,91,0.00,CLR,,0.00,WeatherDisplay:10.37,2013-10-30 09:10:00,
2013-10-30 05:15:00,51.4,49.2,30.24,East,85,0.0,0.0,92,0.00,CLR,,0.00,WeatherDisplay:10.37,2013-10-30 09:15:00,
2013-10-30 05:20:00,51.4,49.2,30.24,East,85,0.0,0.0,92,0.00,CLR,,0.00,WeatherDisplay:10.37,2013-10-30 09:20:00,
2013-10-30 05:25:00,51.4,49.2,30.24,East,85,0.0,0.0,92,0.00,CLR,,0.00,WeatherDisplay:10.37,2013-10-30 09:25:00,
2013-10-30 05:30:00,51.4,49.2,30.24,East,85,0.0,0.0,92,0.00,CLR,,0.00,WeatherDisplay:10.37,2013-10-30 09:30:00,
2013-10-30 05:35:00,51.4,49.2,30.24,East,85,0.0,0.0,92,0.00,CLR,,0.00,WeatherDisplay:10.37,2013-10-30 09:35:00,
2013-10-30 05:40:00,51.4,49.2,30.24,East,85,0.0,0.0,92,0.00,CLR,,0.00,WeatherDisplay:10.37,2013-10-30 09:40:00,
2013-10-30 05:45:00,51.4,49.2,30.24,East,85,0.0,0.0,92,0.00,CLR,,0.00,WeatherDisplay:10.37,2013-10-30 09:45:00,
2013-10-30 05:50:00,51.4,49.5,30.24,East,85,0.0,0.0,93,0.00,CLR,,0.00,WeatherDisplay:10.37,2013-10-30 09:50:00,
2013-10-30 05:55:00,51.4,49.5,30.24,East,85,0.0,0.0,93,0.00,CLR,,0.00,WeatherDisplay:10.37,2013-10-30 09:55:00,
2013-10-30 06:00:00,51.4,49.5,30.27,East,85,0.0,0.0,93,0.00,CLR,,0.00,WeatherDisplay:10.37,2013-10-30 10:00:00,
2013-10-30 06:05:00,51.4,49.5,30.27,East,85,0.0,0.0,93,0.00,CLR,,0.00,WeatherDisplay:10.37,2013-10-30 10:05:00,
2013-10-30 06:10:00,51.4,49.5,30.27,East,85,0.0,0.0,93,0.00,CLR,,0.00,WeatherDisplay:10.37,2013-10-30 10:10:00,
2013-10-30 06:15:00,51.4,49.5,30.27,East,85,0.0,0.0,93,0.00,CLR,,0.00,WeatherDisplay:10.37,2013-10-30 10:15:00,
2013-10-30 06:20:00,51.4,49.5,30.27,East,85,0.0,0.0,93,0.00,CLR,,0.00,WeatherDisplay:10.37,2013-10-30 10:20:00,
2013-10-30 06:25:00,51.4,49.5,30.27,East,85,0.0,0.0,93,0.00,CLR,,0.00,WeatherDisplay:10.37,2013-10-30 10:25:00,
2013-10-30 06:30:00,51.3,49.3,30.24,East,85,0.0,0.0,93,0.00,CLR,,0.00,WeatherDisplay:10.37,2013-10-30 10:30:00,
2013-10-30 06:35:00,51.3,49.6,30.24,East,85,0.0,0.0,94,0.00,CLR,,0.00,WeatherDisplay:10.37,2013-10-30 10:35:00,
2013-10-30 06:40:00,51.3,49.6,30.24,East,85,0.0,0.0,94,0.00,CLR,,0.00,WeatherDisplay:10.37,2013-10-30 10:40:00,
2013-10-30 06:45:00,51.1,49.4,30.24,East,85,0.0,0.0,94,0.00,CLR,,0.00,WeatherDisplay:10.37,2013-10-30 10:45:00,
2013-10-30 06:50:00,51.1,49.4,30.24,East,85,0.0,0.0,94,0.00,CLR,,0.00,WeatherDisplay:10.37,2013-10-30 10:50:00,
2013-10-30 06:55:00,50.9,49.2,30.24,East,85,0.0,0.0,94,0.00,CLR,,0.00,WeatherDisplay:10.37,2013-10-30 10:55:00,
2013-10-30 07:00:00,50.9,49.2,30.24,East,85,0.0,0.0,94,0.00,CLR,,0.00,WeatherDisplay:10.37,2013-10-30 11:00:00,
2013-10-30 07:05:00,50.9,49.2,30.24,East,85,0.0,0.0,94,0.00,CLR,,0.00,WeatherDisplay:10.37,2013-10-30 11:05:00,
2013-10-30 07:10:00,50.9,49.2,30.24,East,85,0.0,0.0,94,0.00,CLR,,0.00,WeatherDisplay:10.37,2013-10-30 11:10:00,
2013-10-30 07:15:00,51.0,49.6,30.27,East,85,0.0,0.0,95,0.00,CLR,,0.00,WeatherDisplay:10.37,2013-10-30 11:15:00,
2013-10-30 07:20:00,51.1,49.7,30.27,East,85,0.0,0.0,95,0.00,CLR,,0.00,WeatherDisplay:10.37,2013-10-30 11:20:00,
2013-10-30 07:25:00,51.1,49.7,30.27,East,85,0.0,0.0,95,0.00,CLR,,0.00,WeatherDisplay:10.37,2013-10-30 11:25:00,
2013-10-30 07:30:00,51.1,49.7,30.27,East,85,0.0,0.0,95,0.00,CLR,,0.00,WeatherDisplay:10.37,2013-10-30 11:30:00,
2013-10-30 07:35:00,51.3,49.9,30.27,East,85,0.0,0.0,95,0.00,CLR,,0.00,WeatherDisplay:10.37,2013-10-30 11:35:00,
2013-10-30 07:40:00,51.3,49.9,30.27,East,85,0.0,0.0,95,0.00,CLR,,0.00,WeatherDisplay:10.37,2013-10-30 11:40:00,
2013-10-30 07:45:00,51.3,49.9,30.27,East,85,0.0,0.0,95,0.00,CLR,,0.00,WeatherDisplay:10.37,2013-10-30 11:45:00,
2013-10-30 07:50:00,51.3,49.9,30.27,East,85,0.0,0.0,95,0.00,CLR,,0.00,WeatherDisplay:10.37,2013-10-30 11:50:00,
2013-10-30 07:55:00,51.3,49.9,30.27,East,85,0.0,0.0,95,0.00,CLR,,0.00,WeatherDisplay:10.37,2013-10-30 11:55:00,
2013-10-30 08:00:00,51.4,50.3,30.27,East,85,0.0,0.0,96,0.00,CLR,,0.00,WeatherDisplay:10.37,2013-10-30 12:00:00,
2013-10-30 08:05:00,51.4,50.3,30.27,East,85,0.0,0.0,96,0.00,CLR,,0.00,WeatherDisplay:10.37,2013-10-30 12:05:00,
2013-10-30 08:10:00,51.7,50.6,30.27,East,85,0.0,0.0,96,0.00,CLR,,0.00,WeatherDisplay:10.37,2013-10-30 12:10:00,
2013-10-30 08:15:00,51.8,50.7,30.27,East,85,0.0,0.0,96,0.00,CLR,,0.00,WeatherDisplay:10.37,2013-10-30 12:15:00,
2013-10-30 08:20:00,52.1,51.0,30.27,East,85,0.0,0.0,96,0.00,CLR,,0.00,WeatherDisplay:10.37,2013-10-30 12:20:00,
2013-10-30 08:25:00,52.3,51.5,30.27,East,85,0.0,0.0,97,0.00,CLR,,0.00,WeatherDisplay:10.37,2013-10-30 12:25:00,
2013-10-30 08:30:00,52.5,51.7,30.27,East,85,0.0,0.0,97,0.00,CLR,,0.00,WeatherDisplay:10.37,2013-10-30 12:30:00,
2013-10-30 08:35:00,52.7,51.9,30.27,East,85,0.0,0.0,97,0.00,CLR,,0.00,WeatherDisplay:10.37,2013-10-30 12:35:00,
2013-10-30 08:40:00,53.1,52.2,30.27,East,85,0.0,0.0,97,0.00,CLR,,0.00,WeatherDisplay:10.37,2013-10-30 12:40:00,
2013-10-30 08:45:00,53.2,52.4,30.27,East,85,0.0,0.0,97,0.00,CLR,,0.00,WeatherDisplay:10.37,2013-10-30 12:45:00,
2013-10-30 08:50:00,53.6,52.8,30.27,East,85,0.0,0.0,97,0.00,CLR,,0.00,WeatherDisplay:10.37,2013-10-30 12:50:00,
2013-10-30 08:55:00,53.8,52.9,30.27,East,85,0.0,0.0,97,0.00,CLR,,0.00,WeatherDisplay:10.37,2013-10-30 12:55:00,
2013-10-30 09:00:00,54.1,53.3,30.27,East,85,0.0,0.0,97,0.00,CLR,,0.00,WeatherDisplay:10.37,2013-10-30 13:00:00,
2013-10-30 09:05:00,54.4,53.9,30.27,East,85,0.0,0.0,98,0.00,CLR,,0.00,WeatherDisplay:10.37,2013-10-30 13:05:00,
2013-10-30 09:10:00,54.8,54.0,30.27,East,85,0.0,0.0,97,0.00,CLR,,0.00,WeatherDisplay:10.37,2013-10-30 13:10:00,
2013-10-30 09:15:00,55.2,55.2,30.27,East,85,0.0,0.0,100,0.00,CLR,,0.00,WeatherDisplay:10.37,2013-10-30 13:15:00,
2013-10-30 09:20:00,55.4,55.4,30.27,East,85,0.0,0.0,100,0.00,CLR,,0.00,WeatherDisplay:10.37,2013-10-30 13:20:00,
2013-10-30 09:25:00,55.8,55.8,30.27,East,85,0.0,0.0,100,0.00,CLR,,0.00,WeatherDisplay:10.37,2013-10-30 13:25:00,
2013-10-30 09:30:00,56.1,56.1,30.27,East,85,0.0,0.0,100,0.00,CLR,,0.00,WeatherDisplay:10.37,2013-10-30 13:30:00,
2013-10-30 09:35:00,56.7,56.7,30.27,East,85,0.0,0.0,100,0.00,CLR,,0.00,WeatherDisplay:10.37,2013-10-30 13:35:00,
2013-10-30 09:40:00,57.0,57.0,30.27,East,85,0.0,0.0,100,0.00,CLR,,0.00,WeatherDisplay:10.37,2013-10-30 13:40:00,
2013-10-30 09:45:00,57.3,57.3,30.27,East,85,0.0,0.0,100,0.00,CLR,,0.00,WeatherDisplay:10.37,2013-10-30 13:45:00,
2013-10-30 09:50:00,57.6,57.6,30.27,East,85,0.0,0.0,100,0.00,CLR,,0.00,WeatherDisplay:10.37,2013-10-30 13:50:00,
2013-10-30 09:55:00,57.7,57.7,30.27,East,85,0.0,0.0,100,0.00,CLR,,0.00,WeatherDisplay:10.37,2013-10-30 13:55:00,
2013-10-30 10:00:00,58.1,58.1,30.27,ESE,104,0.0,0.0,100,0.00,CLR,,0.00,WeatherDisplay:10.37,2013-10-30 14:00:00,
2013-10-30 10:05:00,58.3,58.3,30.27,ESE,123,0.0,0.0,100,0.00,CLR,,0.00,WeatherDisplay:10.37,2013-10-30 14:05:00,
2013-10-30 10:10:00,58.6,58.6,30.27,SE,124,0.0,0.0,100,0.00,CLR,,0.00,WeatherDisplay:10.37,2013-10-30 14:10:00,
2013-10-30 10:15:00,58.8,58.8,30.27,SE,124,0.0,0.0,100,0.00,CLR,,0.00,WeatherDisplay:10.37,2013-10-30 14:15:00,
2013-10-30 10:20:00,59.1,59.1,30.27,ESE,115,0.0,0.0,100,0.00,CLR,,0.00,WeatherDisplay:10.37,2013-10-30 14:20:00,
2013-10-30 10:25:00,59.4,59.4,30.27,ESE,109,0.0,0.0,100,0.00,CLR,,0.00,WeatherDisplay:10.37,2013-10-30 14:25:00,
2013-10-30 10:30:00,59.7,59.7,30.27,ESE,109,0.0,0.0,100,0.00,CLR,,0.00,WeatherDisplay:10.37,2013-10-30 14:30:00,
2013-10-30 10:35:00,60.1,60.1,30.27,ESE,109,0.0,0.0,100,0.00,CLR,,0.00,WeatherDisplay:10.37,2013-10-30 14:35:00,
2013-10-30 10:40:00,60.4,60.4,30.27,ESE,110,0.0,0.0,100,0.00,CLR,,0.00,WeatherDisplay:10.37,2013-10-30 14:40:00,
2013-10-30 10:45:00,60.8,60.8,30.27,ESE,122,0.0,0.0,100,0.00,CLR,,0.00,WeatherDisplay:10.37,2013-10-30 14:45:00,
2013-10-30 10:50:00,61.4,61.4,30.27,SE,130,0.0,0.0,100,0.00,CLR,,0.00,WeatherDisplay:10.37,2013-10-30 14:50:00,
2013-10-30 10:55:00,62.0,62.0,30.27,SE,128,0.0,0.0,100,0.00,CLR,,0.00,WeatherDisplay:10.37,2013-10-30 14:55:00,
2013-10-30 11:00:00,62.8,62.8,30.27,NW,305,0.0,0.0,100,0.00,CLR,,0.00,WeatherDisplay:10.37,2013-10-30 15:00:00,
2013-10-30 11:05:00,63.8,63.8,30.27,SSE,151,2.0,7.0,100,0.00,CLR,,0.00,WeatherDisplay:10.37,2013-10-30 15:05:00,
2013-10-30 11:10:00,64.8,64.8,30.27,SSE,168,0.0,7.0,100,0.00,CLR,,0.00,WeatherDisplay:10.37,2013-10-30 15:10:00,
2013-10-30 11:15:00,65.5,64.6,30.27,SSE,160,0.0,7.0,97,0.00,CLR,,0.00,WeatherDisplay:10.37,2013-10-30 15:15:00,
2013-10-30 11:20:00,66.0,63.9,30.27,SE,146,0.0,5.0,93,0.00,CLR,,0.00,WeatherDisplay:10.37,2013-10-30 15:20:00,
2013-10-30 11:25:00,66.8,64.1,30.27,SSE,152,0.0,7.0,91,0.00,CLR,,0.00,WeatherDisplay:10.37,2013-10-30 15:25:00,
2013-10-30 11:30:00,67.5,63.8,30.27,West,266,0.0,0.0,88,0.00,CLR,,0.00,WeatherDisplay:10.37,2013-10-30 15:30:00,
2013-10-30 11:35:00,68.0,63.3,30.27,SW,216,0.0,0.0,85,0.00,CLR,,0.00,WeatherDisplay:10.37,2013-10-30 15:35:00,
2013-10-30 11:40:00,68.4,63.0,30.27,NW,320,0.0,4.0,83,0.00,CLR,,0.00,WeatherDisplay:10.37,2013-10-30 15:40:00,
2013-10-30 11:45:00,68.7,61.2,30.27,North,7,0.0,4.0,77,0.00,CLR,,0.00,WeatherDisplay:10.37,2013-10-30 15:45:00,
2013-10-30 11:50:00,69.1,61.2,30.27,NNW,348,0.0,0.0,76,0.00,CLR,,0.00,WeatherDisplay:10.37,2013-10-30 15:50:00,
2013-10-30 11:55:00,69.4,60.8,30.27,NW,308,0.0,5.0,74,0.00,CLR,,0.00,WeatherDisplay:10.37,2013-10-30 15:55:00,
2013-10-30 12:00:00,69.8,60.0,30.24,SSE,163,0.0,3.0,71,0.00,CLR,,0.00,WeatherDisplay:10.37,2013-10-30 16:00:00,
2013-10-30 12:05:00,70.2,59.1,30.24,SSE,157,0.0,7.0,68,0.00,CLR,,0.00,WeatherDisplay:10.37,2013-10-30 16:05:00,
2013-10-30 12:10:00,70.3,58.4,30.24,SSW,211,0.0,5.0,66,0.00,CLR,,0.00,WeatherDisplay:10.37,2013-10-30 16:10:00,
2013-10-30 12:15:00,70.5,57.8,30.27,SSW,210,0.0,6.0,64,0.00,CLR,,0.00,WeatherDisplay:10.37,2013-10-30 16:15:00,
2013-10-30 12:20:00,70.9,57.2,30.27,South,169,0.0,5.0,62,0.00,CLR,,0.00,WeatherDisplay:10.37,2013-10-30 16:20:00,
2013-10-30 12:25:00,71.4,57.3,30.27,South,171,0.0,5.0,61,0.00,CLR,,0.00,WeatherDisplay:10.37,2013-10-30 16:25:00,
2013-10-30 12:30:00,72.4,57.2,30.24,SSW,196,0.0,6.0,59,0.00,CLR,,0.00,WeatherDisplay:10.37,2013-10-30 16:30:00,
2013-10-30 12:35:00,73.2,57.1,30.24,SSW,209,0.0,3.0,57,0.00,CLR,,0.00,WeatherDisplay:10.37,2013-10-30 16:35:00,
2013-10-30 12:40:00,73.6,56.9,30.24,West,266,0.0,4.0,56,0.00,CLR,,0.00,WeatherDisplay:10.37,2013-10-30 16:40:00,
2013-10-30 12:45:00,73.8,56.6,30.24,NW,325,0.0,5.0,55,0.00,CLR,,0.00,WeatherDisplay:10.37,2013-10-30 16:45:00,
2013-10-30 12:50:00,73.8,55.6,30.24,NNW,327,0.0,7.0,53,0.00,CLR,,0.00,WeatherDisplay:10.37,2013-10-30 16:50:00,
2013-10-30 12:55:00,73.8,54.5,30.24,West,271,0.0,8.0,51,0.00,CLR,,0.00,WeatherDisplay:10.37,2013-10-30 16:55:00,
2013-10-30 13:00:00,73.8,54.5,30.24,SE,143,0.0,4.0,51,0.00,CLR,,0.00,WeatherDisplay:10.37,2013-10-30 17:00:00,
2013-10-30 13:05:00,73.9,54.1,30.24,South,187,0.0,5.0,50,0.00,CLR,,0.00,WeatherDisplay:10.37,2013-10-30 17:05:00,
2013-10-30 13:10:00,74.3,53.3,30.24,SW,229,2.0,7.0,48,0.00,CLR,,0.00,WeatherDisplay:10.37,2013-10-30 17:10:00,
2013-10-30 13:15:00,74.5,53.0,30.21,WSW,243,0.0,6.0,47,0.00,CLR,,0.00,WeatherDisplay:10.37,2013-10-30 17:15:00,
2013-10-30 13:20:00,75.0,53.4,30.21,SW,231,0.0,5.0,47,0.00,CLR,,0.00,WeatherDisplay:10.37,2013-10-30 17:20:00,
2013-10-30 13:25:00,75.4,53.7,30.21,SSW,202,0.0,0.0,47,0.00,CLR,,0.00,WeatherDisplay:10.37,2013-10-30 17:25:00,
2013-10-30 13:30:00,75.4,53.7,30.21,SW,228,0.0,5.0,47,0.00,CLR,,0.00,WeatherDisplay:10.37,2013-10-30 17:30:00,
2013-10-30 13:35:00,75.4,53.7,30.21,WSW,239,0.0,5.0,47,0.00,CLR,,0.00,WeatherDisplay:10.37,2013-10-30 17:35:00,
2013-10-30 13:40:00,75.4,53.7,30.21,WSW,256,0.0,5.0,47,0.00,CLR,,0.00,WeatherDisplay:10.37,2013-10-30 17:40:00,
2013-10-30 13:45:00,75.2,53.6,30.21,WSW,243,0.0,5.0,47,0.00,CLR,,0.00,WeatherDisplay:10.37,2013-10-30 17:45:00,
2013-10-30 13:50:00,75.4,53.7,30.21,WNW,299,0.0,5.0,47,0.00,CLR,,0.00,WeatherDisplay:10.37,2013-10-30 17:50:00,
2013-10-30 13:55:00,75.4,53.7,30.21,North,6,0.0,5.0,47,0.00,CLR,,0.00,WeatherDisplay:10.37,2013-10-30 17:55:00,
2013-10-30 14:00:00,75.6,53.9,30.18,WSW,243,0.0,7.0,47,0.00,CLR,,0.00,WeatherDisplay:10.37,2013-10-30 18:00:00,
2013-10-30 14:05:00,75.8,54.1,30.18,SSW,193,0.0,4.0,47,0.00,CLR,,0.00,WeatherDisplay:10.37,2013-10-30 18:05:00,
2013-10-30 14:10:00,75.9,54.2,30.18,NW,309,2.0,9.0,47,0.00,CLR,,0.00,WeatherDisplay:10.37,2013-10-30 18:10:00,
2013-10-30 14:15:00,76.2,53.9,30.18,WNW,285,0.0,3.0,46,0.00,CLR,,0.00,WeatherDisplay:10.37,2013-10-30 18:15:00,
2013-10-30 14:20:00,76.3,54.0,30.18,West,273,2.0,4.0,46,0.00,CLR,,0.00,WeatherDisplay:10.37,2013-10-30 18:20:00,
2013-10-30 14:25:00,76.5,52.3,30.18,SSW,209,0.0,5.0,43,0.00,CLR,,0.00,WeatherDisplay:10.37,2013-10-30 18:25:00,
2013-10-30 14:30:00,76.6,53.7,30.18,South,181,0.0,4.0,45,0.00,CLR,,0.00,WeatherDisplay:10.37,2013-10-30 18:30:00,
2013-10-30 14:35:00,76.6,53.7,30.18,SW,233,3.0,7.0,45,0.00,CLR,,0.00,WeatherDisplay:10.37,2013-10-30 18:35:00,
2013-10-30 14:40:00,76.6,53.1,30.18,South,171,0.0,5.0,44,0.00,CLR,,0.00,WeatherDisplay:10.37,2013-10-30 18:40:00,
2013-10-30 14:45:00,76.6,53.1,30.18,SSE,161,0.0,0.0,44,0.00,CLR,,0.00,WeatherDisplay:10.37,2013-10-30 18:45:00,
2013-10-30 14:50:00,76.6,53.7,30.18,SSE,161,0.0,5.0,45,0.00,CLR,,0.00,WeatherDisplay:10.37,2013-10-30 18:50:00,
2013-10-30 14:55:00,76.6,53.7,30.18,SSW,212,0.0,5.0,45,0.00,CLR,,0.00,WeatherDisplay:10.37,2013-10-30 18:55:00,
2013-10-30 15:00:00,76.5,52.9,30.15,NW,310,0.0,5.0,44,0.00,CLR,,0.00,WeatherDisplay:10.37,2013-10-30 19:00:00,
2013-10-30 15:05:00,76.5,52.3,30.15,NNW,329,0.0,0.0,43,0.00,CLR,,0.00,WeatherDisplay:10.37,2013-10-30 19:05:00,
2013-10-30 15:10:00,76.5,52.3,30.15,NNE,20,0.0,5.0,43,0.00,CLR,,0.00,WeatherDisplay:10.37,2013-10-30 19:10:00,
2013-10-30 15:15:00,76.3,51.5,30.15,ESE,122,2.0,6.0,42,0.00,CLR,,0.00,WeatherDisplay:10.37,2013-10-30 19:15:00,
2013-10-30 15:20:00,76.3,51.5,30.15,SSE,149,0.0,6.0,42,0.00,CLR,,0.00,WeatherDisplay:10.37,2013-10-30 19:20:00,
2013-10-30 15:25:00,76.3,51.5,30.15,ENE,60,0.0,9.0,42,0.00,CLR,,0.00,WeatherDisplay:10.37,2013-10-30 19:25:00,
2013-10-30 15:30:00,76.3,51.5,30.15,NNW,331,0.0,5.0,42,0.00,CLR,,0.00,WeatherDisplay:10.37,2013-10-30 19:30:00,
2013-10-30 15:35:00,76.3,51.5,30.15,West,279,0.0,7.0,42,0.00,CLR,,0.00,WeatherDisplay:10.37,2013-10-30 19:35:00,
2013-10-30 15:40:00,76.3,51.5,30.15,SW,224,0.0,4.0,42,0.00,CLR,,0.00,WeatherDisplay:10.37,2013-10-30 19:40:00,
2013-10-30 15:45:00,76.3,51.5,30.15,SSW,195,0.0,0.0,42,0.00,CLR,,0.00,WeatherDisplay:10.37,2013-10-30 19:45:00,
2013-10-30 15:50:00,76.1,51.3,30.15,South,184,0.0,3.0,42,0.00,CLR,,0.00,WeatherDisplay:10.37,2013-10-30 19:50:00,
2013-10-30 15:55:00,76.1,51.3,30.15,NW,311,2.0,5.0,42,0.00,CLR,,0.00,WeatherDisplay:10.37,2013-10-30 19:55:00,
2013-10-30 16:00:00,76.1,51.3,30.15,NNW,339,0.0,0.0,42,0.00,CLR,,0.00,WeatherDisplay:10.37,2013-10-30 20:00:00,
2013-10-30 16:05:00,76.1,51.3,30.15,ESE,121,0.0,5.0,42,0.00,CLR,,0.00,WeatherDisplay:10.37,2013-10-30 20:05:00,
2013-10-30 16:10:00,75.9,51.8,30.15,SE,139,2.0,4.0,43,0.00,CLR,,0.00,WeatherDisplay:10.37,2013-10-30 20:10:00,
2013-10-30 16:15:00,75.9,51.8,30.15,NE,46,0.0,0.0,43,0.00,CLR,,0.00,WeatherDisplay:10.37,2013-10-30 20:15:00,
2013-10-30 16:20:00,75.7,51.6,30.15,NNE,23,0.0,5.0,43,0.00,CLR,,0.00,WeatherDisplay:10.37,2013-10-30 20:20:00,
2013-10-30 16:25:00,75.7,51.6,30.15,NE,51,0.0,0.0,43,0.00,CLR,,0.00,WeatherDisplay:10.37,2013-10-30 20:25:00,
2013-10-30 16:30:00,75.7,51.6,30.15,ESE,112,0.0,0.0,43,0.00,CLR,,0.00,WeatherDisplay:10.37,2013-10-30 20:30:00,
2013-10-30 16:35:00,75.6,52.1,30.15,SE,132,0.0,0.0,44,0.00,CLR,,0.00,WeatherDisplay:10.37,2013-10-30 20:35:00,
2013-10-30 16:40:00,75.6,52.1,30.15,East,82,0.0,0.0,44,0.00,CLR,,0.00,WeatherDisplay:10.37,2013-10-30 20:40:00,
2013-10-30 16:45:00,75.5,52.0,30.15,North,358,0.0,0.0,44,0.00,CLR,,0.00,WeatherDisplay:10.37,2013-10-30 20:45:00,
2013-10-30 16:50:00,75.4,52.0,30.15,NNE,28,0.0,0.0,44,0.00,CLR,,0.00,WeatherDisplay:10.37,2013-10-30 20:50:00,
2013-10-30 16:55:00,75.4,53.2,30.15,NE,35,0.0,0.0,46,0.00,CLR,,0.00,WeatherDisplay:10.37,2013-10-30 20:55:00,
2013-10-30 17:00:00,75.0,52.8,30.15,North,349,0.0,0.0,46,0.00,CLR,,0.00,WeatherDisplay:10.37,2013-10-30 21:00:00,
2013-10-30 17:05:00,74.8,52.7,30.15,North,2,0.0,0.0,46,0.00,CLR,,0.00,WeatherDisplay:10.37,2013-10-30 21:05:00,
2013-10-30 17:10:00,74.7,52.5,30.15,NE,47,0.0,0.0,46,0.00,CLR,,0.00,WeatherDisplay:10.37,2013-10-30 21:10:00,
2013-10-30 17:15:00,74.6,52.5,30.15,ENE,66,0.0,0.0,46,0.00,CLR,,0.00,WeatherDisplay:10.37,2013-10-30 21:15:00,
2013-10-30 17:20:00,74.5,52.3,30.15,ENE,68,0.0,0.0,46,0.00,CLR,,0.00,WeatherDisplay:10.37,2013-10-30 21:20:00,
2013-10-30 17:25:00,74.1,52.6,30.15,ENE,73,0.0,0.0,47,0.00,CLR,,0.00,WeatherDisplay:10.37,2013-10-30 21:25:00,
2013-10-30 17:35:00,73.6,52.1,30.15,ESE,108,0.0,0.0,47,0.00,CLR,,0.00,WeatherDisplay:10.37,2013-10-30 21:35:00,
2013-10-30 17:40:00,73.4,51.9,30.15,SE,146,0.0,0.0,47,0.00,CLR,,0.00,WeatherDisplay:10.37,2013-10-30 21:40:00,
2013-10-30 17:45:00,73.0,51.6,30.15,SSE,159,0.0,0.0,47,0.00,CLR,,0.00,WeatherDisplay:10.37,2013-10-30 21:45:00,
2013-10-30 17:50:00,72.7,51.9,30.15,SSE,159,0.0,0.0,48,0.00,CLR,,0.00,WeatherDisplay:10.37,2013-10-30 21:50:00,
2013-10-30 17:55:00,72.5,51.7,30.15,SSE,159,0.0,0.0,48,0.00,CLR,,0.00,WeatherDisplay:10.37,2013-10-30 21:55:00,
2013-10-30 18:00:00,72.1,51.9,30.15,SSE,159,0.0,0.0,49,0.00,CLR,,0.00,WeatherDisplay:10.37,2013-10-30 22:00:00,
2013-10-30 18:05:00,71.8,51.6,30.15,SSE,159,0.0,0.0,49,0.00,CLR,,0.00,WeatherDisplay:10.37,2013-10-30 22:05:00,
2013-10-30 18:10:00,71.6,51.4,30.15,SSE,159,0.0,0.0,49,0.00,CLR,,0.00,WeatherDisplay:10.37,2013-10-30 22:10:00,
2013-10-30 18:15:00,71.4,51.3,30.15,SSE,159,0.0,0.0,49,0.00,CLR,,0.00,WeatherDisplay:10.37,2013-10-30 22:15:00,
2013-10-30 18:20:00,71.1,51.0,30.15,SSE,158,0.0,0.0,49,0.00,CLR,,0.00,WeatherDisplay:10.37,2013-10-30 22:20:00,
2013-10-30 18:25:00,70.8,51.3,30.15,SSE,158,0.0,0.0,50,0.00,CLR,,0.00,WeatherDisplay:10.37,2013-10-30 22:25:00,
2013-10-30 18:30:00,70.5,51.0,30.15,SSE,158,0.0,0.0,50,0.00,CLR,,0.00,WeatherDisplay:10.37,2013-10-30 22:30:00,
2013-10-30 18:35:00,70.2,51.2,30.15,SSE,158,0.0,0.0,51,0.00,CLR,,0.00,WeatherDisplay:10.37,2013-10-30 22:35:00,
2013-10-30 18:40:00,70.0,51.5,30.15,SSE,159,0.0,0.0,52,0.00,CLR,,0.00,WeatherDisplay:10.37,2013-10-30 22:40:00,
2013-10-30 18:45:00,69.6,51.2,30.15,SSE,159,0.0,0.0,52,0.00,CLR,,0.00,WeatherDisplay:10.37,2013-10-30 22:45:00,
2013-10-30 18:50:00,69.3,51.4,30.15,SSE,159,0.0,0.0,53,0.00,CLR,,0.00,WeatherDisplay:10.37,2013-10-30 22:50:00,
2013-10-30 18:55:00,69.1,51.2,30.15,SSE,159,0.0,0.0,53,0.00,CLR,,0.00,WeatherDisplay:10.37,2013-10-30 22:55:00,
2013-10-30 19:00:00,68.7,51.4,30.18,SSE,159,0.0,0.0,54,0.00,CLR,,0.00,WeatherDisplay:10.37,2013-10-30 23:00:00,
2013-10-30 19:05:00,68.5,51.7,30.18,SSE,159,0.0,0.0,55,0.00,CLR,,0.00,WeatherDisplay:10.37,2013-10-30 23:05:00,
2013-10-30 19:10:00,68.2,51.4,30.18,SSE,159,0.0,0.0,55,0.00,CLR,,0.00,WeatherDisplay:10.37,2013-10-30 23:10:00,
2013-10-30 19:15:00,68.0,51.7,30.18,SSE,159,0.0,0.0,56,0.00,CLR,,0.00,WeatherDisplay:10.37,2013-10-30 23:15:00,
2013-10-30 19:20:00,67.6,51.9,30.18,SSE,159,0.0,0.0,57,0.00,CLR,,0.00,WeatherDisplay:10.37,2013-10-30 23:20:00,
2013-10-30 19:25:00,67.3,51.5,30.18,SSE,159,0.0,0.0,57,0.00,CLR,,0.00,WeatherDisplay:10.37,2013-10-30 23:25:00,
2013-10-30 19:30:00,66.9,51.7,30.18,SSE,159,0.0,0.0,58,0.00,CLR,,0.00,WeatherDisplay:10.37,2013-10-30 23:30:00,
2013-10-30 19:35:00,66.4,51.6,30.18,SSE,159,0.0,0.0,59,0.00,CLR,,0.00,WeatherDisplay:10.37,2013-10-30 23:35:00,
2013-10-30 19:40:00,66.0,51.3,30.18,SSE,158,0.0,0.0,59,0.00,CLR,,0.00,WeatherDisplay:10.37,2013-10-30 23:40:00,
2013-10-30 19:45:00,65.7,51.4,30.18,SSE,159,0.0,0.0,60,0.00,CLR,,0.00,WeatherDisplay:10.37,2013-10-30 23:45:00,
2013-10-30 19:50:00,65.5,51.2,30.18,SSE,159,0.0,0.0,60,0.00,CLR,,0.00,WeatherDisplay:10.37,2013-10-30 23:50:00,
2013-10-30 19:55:00,65.3,51.5,30.18,SSE,159,0.0,0.0,61,0.00,CLR,,0.00,WeatherDisplay:10.37,2013-10-30 23:55:00,
2013-10-30 20:00:00,65.1,51.3,30.18,SSE,159,0.0,0.0,61,0.00,CLR,,0.00,WeatherDisplay:10.37,2013-10-31 00:00:00,
2013-10-30 20:05:00,64.9,51.6,30.18,SSE,159,0.0,0.0,62,0.00,CLR,,0.00,WeatherDisplay:10.37,2013-10-31 00:05:00,
2013-10-30 20:10:00,64.8,51.4,30.18,SSE,158,0.0,0.0,62,0.00,CLR,,0.00,WeatherDisplay:10.37,2013-10-31 00:10:00,
2013-10-30 20:15:00,64.6,51.7,30.18,SSE,158,0.0,0.0,63,0.00,CLR,,0.00,WeatherDisplay:10.37,2013-10-31 00:15:00,
2013-10-30 20:20:00,64.4,51.5,30.18,SSE,159,0.0,0.0,63,0.00,CLR,,0.00,WeatherDisplay:10.37,2013-10-31 00:20:00,
2013-10-30 20:25:00,64.0,51.6,30.18,SSE,159,0.0,0.0,64,0.00,CLR,,0.00,WeatherDisplay:10.37,2013-10-31 00:25:00,
2013-10-30 20:30:00,63.9,51.4,30.18,SSE,159,0.0,0.0,64,0.00,CLR,,0.00,WeatherDisplay:10.37,2013-10-31 00:30:00,
2013-10-30 20:35:00,63.6,51.6,30.18,SSE,159,0.0,0.0,65,0.00,CLR,,0.00,WeatherDisplay:10.37,2013-10-31 00:35:00,
2013-10-30 20:40:00,63.5,51.5,30.18,SSE,159,0.0,0.0,65,0.00,CLR,,0.00,WeatherDisplay:10.37,2013-10-31 00:40:00,
2013-10-30 20:45:00,63.2,51.6,30.18,SSE,158,0.0,0.0,66,0.00,CLR,,0.00,WeatherDisplay:10.37,2013-10-31 00:45:00,
2013-10-30 20:50:00,63.1,51.5,30.18,SSE,158,0.0,0.0,66,0.00,CLR,,0.00,WeatherDisplay:10.37,2013-10-31 00:50:00,
2013-10-30 20:55:00,62.8,51.7,30.18,SSE,159,0.0,0.0,67,0.00,CLR,,0.00,WeatherDisplay:10.37,2013-10-31 00:55:00,
2013-10-30 21:00:00,62.8,51.7,30.18,SSE,159,0.0,0.0,67,0.00,CLR,,0.00,WeatherDisplay:10.37,2013-10-31 01:00:00,
2013-10-30 21:05:00,62.6,51.9,30.18,SSE,158,0.0,0.0,68,0.00,CLR,,0.00,WeatherDisplay:10.37,2013-10-31 01:05:00,
2013-10-30 21:10:00,62.2,51.5,30.18,SSE,159,0.0,0.0,68,0.00,CLR,,0.00,WeatherDisplay:10.37,2013-10-31 01:10:00,
2013-10-30 21:15:00,62.1,51.8,30.18,SSE,159,0.0,0.0,69,0.00,CLR,,0.00,WeatherDisplay:10.37,2013-10-31 01:15:00,
2013-10-30 21:20:00,61.9,51.6,30.18,SSE,158,0.0,0.0,69,0.00,CLR,,0.00,WeatherDisplay:10.37,2013-10-31 01:20:00,
2013-10-30 21:25:00,61.7,51.8,30.18,SSE,158,0.0,0.0,70,0.00,CLR,,0.00,WeatherDisplay:10.37,2013-10-31 01:25:00,
2013-10-30 21:30:00,61.6,52.1,30.18,SSE,158,0.0,0.0,71,0.00,CLR,,0.00,WeatherDisplay:10.37,2013-10-31 01:30:00,
2013-10-30 21:35:00,61.5,52.0,30.18,SSE,158,0.0,0.0,71,0.00,CLR,,0.00,WeatherDisplay:10.37,2013-10-31 01:35:00,
2013-10-30 21:40:00,61.5,52.0,30.18,SSE,158,0.0,0.0,71,0.00,CLR,,0.00,WeatherDisplay:10.37,2013-10-31 01:40:00,
2013-10-30 21:45:00,61.3,52.2,30.18,SSE,159,0.0,0.0,72,0.00,CLR,,0.00,WeatherDisplay:10.37,2013-10-31 01:45:00,
2013-10-30 21:50:00,61.3,52.2,30.18,SSE,159,0.0,0.0,72,0.00,CLR,,0.00,WeatherDisplay:10.37,2013-10-31 01:50:00,
2013-10-30 21:55:00,61.2,52.1,30.18,SSE,158,0.0,0.0,72,0.00,CLR,,0.00,WeatherDisplay:10.37,2013-10-31 01:55:00,
2013-10-30 22:00:00,61.0,52.3,30.18,SSE,158,0.0,0.0,73,0.00,CLR,,0.00,WeatherDisplay:10.37,2013-10-31 02:00:00,
2013-10-30 22:05:00,61.0,52.3,30.18,SSE,159,0.0,0.0,73,0.00,CLR,,0.00,WeatherDisplay:10.37,2013-10-31 02:05:00,
2013-10-30 22:10:00,60.8,52.5,30.18,SSE,159,0.0,0.0,74,0.00,CLR,,0.00,WeatherDisplay:10.37,2013-10-31 02:10:00,
2013-10-30 22:15:00,60.8,52.5,30.18,SSE,158,0.0,0.0,74,0.00,CLR,,0.00,WeatherDisplay:10.37,2013-10-31 02:15:00,
2013-10-30 22:20:00,60.6,52.3,30.18,SSE,158,0.0,0.0,74,0.00,CLR,,0.00,WeatherDisplay:10.37,2013-10-31 02:20:00,
2013-10-30 22:25:00,60.6,52.6,30.18,SSE,158,0.0,0.0,75,0.00,CLR,,0.00,WeatherDisplay:10.37,2013-10-31 02:25:00,
2013-10-30 22:30:00,60.4,52.5,30.18,SSE,158,0.0,0.0,75,0.00,CLR,,0.00,WeatherDisplay:10.37,2013-10-31 02:30:00,
2013-10-30 22:35:00,60.4,52.8,30.18,SSE,158,0.0,0.0,76,0.00,CLR,,0.00,WeatherDisplay:10.37,2013-10-31 02:35:00,
2013-10-30 22:40:00,60.3,52.7,30.18,SSE,158,0.0,0.0,76,0.00,CLR,,0.00,WeatherDisplay:10.37,2013-10-31 02:40:00,
2013-10-30 22:45:00,60.3,52.7,30.18,SSE,158,0.0,0.0,76,0.00,CLR,,0.00,WeatherDisplay:10.37,2013-10-31 02:45:00,
2013-10-30 22:50:00,60.3,52.7,30.18,SSE,158,0.0,0.0,76,0.00,CLR,,0.00,WeatherDisplay:10.37,2013-10-31 02:50:00,
2013-10-30 22:55:00,60.1,52.8,30.18,SSE,159,0.0,0.0,77,0.00,CLR,,0.00,WeatherDisplay:10.37,2013-10-31 02:55:00,
2013-10-30 23:00:00,60.1,52.8,30.18,SSE,158,0.0,0.0,77,0.00,CLR,,0.00,WeatherDisplay:10.37,2013-10-31 03:00:00,
2013-10-30 23:05:00,60.1,53.2,30.18,SSE,158,0.0,0.0,78,0.00,CLR,,0.00,WeatherDisplay:10.37,2013-10-31 03:05:00,
2013-10-30 23:10:00,59.9,53.0,30.18,SSE,158,0.0,0.0,78,0.00,CLR,,0.00,WeatherDisplay:10.37,2013-10-31 03:10:00,
2013-10-30 23:15:00,59.9,53.0,30.18,SSE,158,0.0,0.0,78,0.00,CLR,,0.00,WeatherDisplay:10.37,2013-10-31 03:15:00,
2013-10-30 23:20:00,59.9,53.0,30.18,SSE,158,0.0,0.0,78,0.00,CLR,,0.00,WeatherDisplay:10.37,2013-10-31 03:20:00,
2013-10-30 23:25:00,59.7,53.2,30.18,SSE,158,0.0,0.0,79,0.00,CLR,,0.00,WeatherDisplay:10.37,2013-10-31 03:25:00,
2013-10-30 23:30:00,59.7,53.2,30.18,SSE,158,0.0,0.0,79,0.00,CLR,,0.00,WeatherDisplay:10.37,2013-10-31 03:30:00,
2013-10-30 23:35:00,59.5,53.4,30.18,SSE,158,0.0,0.0,80,0.00,CLR,,0.00,WeatherDisplay:10.37,2013-10-31 03:35:00,
2013-10-30 23:40:00,59.5,53.4,30.18,SSE,159,0.0,0.0,80,0.00,CLR,,0.00,WeatherDisplay:10.37,2013-10-31 03:40:00,
2013-10-30 23:45:00,59.5,53.4,30.18,SSE,158,0.0,0.0,80,0.00,CLR,,0.00,WeatherDisplay:10.37,2013-10-31 03:45:00,
2013-10-30 23:50:00,59.5,53.7,30.18,SSE,158,0.0,0.0,81,0.00,CLR,,0.00,WeatherDisplay:10.37,2013-10-31 03:50:00,
2013-10-30 23:55:00,59.4,53.5,30.18,SSE,158,0.0,0.0,81,0.00,CLR,,0.00,WeatherDisplay:10.37,2013-10-31 03:55:00,